»·PEaware :: N7GL KSNA-KOAK

N7GL :: KSNA-KOAK

FLIGHT INFORMATION

Flight Status: Arrived
Operator: Privately registered:
United States
More flights under this callsign
Pilot: Georg L. (13308)
Aircraft: BEECH AIRCRAFT SUPER KING AIR 350
(B350)
More flights by this aircraft type
Origin: KSNA John Wayne-Orange Co
United States
Destination: KOAK Metro Oakland Intl
United States
More flights between these airports :: More routes between these airports
Route: CHANL3 GMN PXN V301 SUNOL
File this flight plan on PilotEdge
Remarks:
Altitude:
(Current/Filed)
28,000ft
Speed:
(Current/Filed)
292kts
Departed: 04-Aug-20 08:50 AM
Arrived: 04-Aug-20 10:10 AM
Distance/Time
Traveled:
322nm/1:20
Distance/Time
To Go:
Arrived

Flight Plot

Page will automatically refresh every two minutes.

Flight plan parsing failed; only flown route is shown


Map Options




Map Legend


Flown Route
Filed Route
Departure Airport
Arrival Airport
Navaid (VOR, NDB)
Fix

Horizontal Profiles

Position Reports

Time Latitude Longitude Heading Altitude Ground
Speed
04-Aug-20 08:02 33.665892 -117.873048 9 61ft 0kts
04-Aug-20 08:03 33.665892 -117.873048 9 61ft 0kts
04-Aug-20 08:04 33.665892 -117.873048 9 61ft 0kts
04-Aug-20 08:05 33.665892 -117.873048 9 61ft 0kts
04-Aug-20 08:06 33.665892 -117.873048 9 61ft 0kts
04-Aug-20 08:07 33.665892 -117.873048 9 61ft 0kts
04-Aug-20 08:08 33.665892 -117.873048 9 61ft 0kts
04-Aug-20 08:09 33.665892 -117.873048 9 61ft 0kts
04-Aug-20 08:10 33.665892 -117.873048 9 61ft 0kts
04-Aug-20 08:11 33.665892 -117.873048 9 61ft 0kts
04-Aug-20 08:12 33.665892 -117.873048 9 61ft 0kts
04-Aug-20 08:13 33.665892 -117.873048 9 61ft 0kts
04-Aug-20 08:14 33.665892 -117.873048 9 61ft 0kts
04-Aug-20 08:15 33.665892 -117.873048 9 61ft 0kts
04-Aug-20 08:16 33.665892 -117.873048 9 61ft 0kts
04-Aug-20 08:17 33.665892 -117.873048 9 61ft 0kts
04-Aug-20 08:18 33.665892 -117.873048 9 61ft 0kts
04-Aug-20 08:19 33.665892 -117.873048 9 61ft 0kts
04-Aug-20 08:20 33.665892 -117.873048 9 61ft 0kts
04-Aug-20 08:21 33.665892 -117.873048 9 61ft 0kts
04-Aug-20 08:25 33.665892 -117.873048 9 61ft 0kts
04-Aug-20 08:28 33.665892 -117.873048 9 61ft 0kts
04-Aug-20 08:29 33.665892 -117.873048 9 61ft 0kts
04-Aug-20 08:30 33.665892 -117.873048 9 61ft 0kts
04-Aug-20 08:31 33.665892 -117.873048 9 61ft 0kts
04-Aug-20 08:32 33.665893 -117.873048 9 61ft 0kts
04-Aug-20 08:33 33.665893 -117.873048 9 61ft 0kts
04-Aug-20 08:34 33.665893 -117.873048 9 61ft 0kts
04-Aug-20 08:35 33.665893 -117.873048 9 61ft 0kts
04-Aug-20 08:36 33.665893 -117.873048 9 61ft 0kts
04-Aug-20 08:37 33.665893 -117.873048 9 61ft 0kts
04-Aug-20 08:38 33.665893 -117.873048 9 61ft 0kts
04-Aug-20 08:39 33.666150 -117.873143 325 61ft 0kts
04-Aug-20 08:40 33.666152 -117.873144 325 61ft 0kts
04-Aug-20 08:41 33.667551 -117.872989 304 61ft 7kts
04-Aug-20 08:42 33.669185 -117.874473 30 61ft 13kts
04-Aug-20 08:43 33.673577 -117.871653 29 61ft 20kts
04-Aug-20 08:44 33.678623 -117.868465 28 61ft 20kts
04-Aug-20 08:45 33.681216 -117.866441 119 61ft 4kts
04-Aug-20 08:46 33.681179 -117.866362 118 61ft 0kts
04-Aug-20 08:47 33.681179 -117.866362 118 61ft 0kts
04-Aug-20 08:48 33.680511 -117.865768 205 61ft 0kts
04-Aug-20 08:49 33.657296 -117.877207 188 871ft 161kts
04-Aug-20 08:50 33.610372 -117.885842 187 3205ft 177kts
04-Aug-20 08:51 33.561047 -117.898523 214 5273ft 196kts
04-Aug-20 08:52 33.516142 -117.934162 219 7551ft 185kts
04-Aug-20 08:53 33.493748 -117.982447 255 9545ft 172kts
04-Aug-20 08:54 33.478790 -118.037474 255 11468ft 175kts
04-Aug-20 08:55 33.463645 -118.093606 254 13207ft 180kts
04-Aug-20 08:56 33.462209 -118.149226 325 14768ft 190kts
04-Aug-20 08:57 33.509618 -118.177711 331 16480ft 194kts
04-Aug-20 08:58 33.558420 -118.206879 331 18053ft 198kts
04-Aug-20 08:59 33.608044 -118.236599 331 19539ft 201kts
04-Aug-20 09:00 33.658130 -118.266640 330 20875ft 203kts
04-Aug-20 09:01 33.708797 -118.297240 329 22151ft 204kts
04-Aug-20 09:02 33.759706 -118.327862 329 23459ft 206kts
04-Aug-20 09:03 33.811229 -118.358883 329 24817ft 208kts
04-Aug-20 09:04 33.863192 -118.390207 329 26180ft 210kts
04-Aug-20 09:05 33.915370 -118.421699 329 27544ft 211kts
04-Aug-20 09:06 33.971726 -118.451814 335 28072ft 241kts
04-Aug-20 09:07 34.036930 -118.482953 334 28065ft 266kts
04-Aug-20 09:08 34.107766 -118.517480 334 28058ft 282kts
04-Aug-20 09:09 34.181876 -118.553749 334 28054ft 292kts
04-Aug-20 09:10 34.258108 -118.591156 334 28053ft 298kts
04-Aug-20 09:11 34.335679 -118.629316 334 28054ft 303kts
04-Aug-20 09:12 34.413052 -118.667459 334 28056ft 307kts
04-Aug-20 09:13 34.492780 -118.706834 334 28056ft 311kts
04-Aug-20 09:14 34.573014 -118.746539 334 28055ft 313kts
04-Aug-20 09:15 34.653575 -118.786504 333 28056ft 314kts
04-Aug-20 09:16 34.734432 -118.826699 333 28057ft 314kts
04-Aug-20 09:17 34.813324 -118.871084 320 28103ft 309kts
04-Aug-20 09:18 34.880356 -118.935494 316 28104ft 308kts
04-Aug-20 09:19 34.947233 -119.000855 316 28068ft 309kts
04-Aug-20 09:20 35.014486 -119.066575 316 28038ft 310kts
04-Aug-20 09:21 35.081577 -119.132273 316 28038ft 310kts
04-Aug-20 09:22 35.140824 -119.190416 316 28033ft 309kts
04-Aug-20 09:23 35.205859 -119.254372 316 28015ft 308kts
04-Aug-20 09:24 35.272732 -119.320295 316 28015ft 308kts
04-Aug-20 09:25 35.339362 -119.386106 316 28015ft 307kts
04-Aug-20 09:26 35.405777 -119.451846 316 28016ft 307kts
04-Aug-20 09:27 35.472118 -119.517657 316 28015ft 307kts
04-Aug-20 09:28 35.538374 -119.583527 316 28014ft 306kts
04-Aug-20 09:29 35.604623 -119.649540 316 28015ft 306kts
04-Aug-20 09:30 35.670761 -119.715582 315 28019ft 307kts
04-Aug-20 09:32 35.736871 -119.781606 316 28024ft 307kts
04-Aug-20 09:33 35.803132 -119.847906 315 28031ft 307kts
04-Aug-20 09:34 35.869341 -119.914450 315 28029ft 307kts
04-Aug-20 09:35 35.935477 -119.981377 316 28028ft 308kts
04-Aug-20 09:36 36.001868 -120.048161 316 28030ft 308kts
04-Aug-20 09:37 36.067917 -120.115016 315 28033ft 308kts
04-Aug-20 09:38 36.133506 -120.181581 315 28030ft 307kts
04-Aug-20 09:39 36.199419 -120.248474 315 28033ft 307kts
04-Aug-20 09:40 36.265346 -120.315666 315 28032ft 306kts
04-Aug-20 09:41 36.330664 -120.383218 315 28021ft 306kts
04-Aug-20 09:42 36.396165 -120.450635 315 28013ft 306kts
04-Aug-20 09:43 36.461902 -120.517671 316 28010ft 306kts
04-Aug-20 09:44 36.527492 -120.584619 316 28008ft 305kts
04-Aug-20 09:45 36.591936 -120.650979 315 28008ft 305kts
04-Aug-20 09:46 36.657635 -120.718830 315 28035ft 305kts
04-Aug-20 09:46 36.712580 -120.775622 315 27527ft 321kts
04-Aug-20 09:48 36.792432 -120.865440 313 25836ft 334kts
04-Aug-20 09:48 36.848806 -120.930107 314 24588ft 327kts
04-Aug-20 09:49 36.916341 -121.007627 314 22990ft 335kts
04-Aug-20 09:51 36.996870 -121.100120 315 20919ft 338kts
04-Aug-20 09:51 37.054479 -121.166453 315 19423ft 335kts
04-Aug-20 09:52 37.121496 -121.243843 315 17618ft 323kts
04-Aug-20 09:53 37.186830 -121.319353 315 15659ft 315kts
04-Aug-20 09:54 37.249489 -121.392312 316 13332ft 302kts
04-Aug-20 09:55 37.309819 -121.462572 316 11024ft 291kts
04-Aug-20 09:56 37.367409 -121.531962 311 8719ft 284kts
04-Aug-20 09:57 37.415578 -121.605035 309 7189ft 260kts
04-Aug-20 09:58 37.460201 -121.673437 309 5985ft 246kts
04-Aug-20 09:59 37.502093 -121.738073 309 5999ft 235kts
04-Aug-20 10:00 37.543625 -121.801548 309 5999ft 234kts
04-Aug-20 10:01 37.584362 -121.862457 313 5601ft 229kts
04-Aug-20 10:02 37.628299 -121.920499 311 4104ft 228kts
04-Aug-20 10:03 37.654205 -121.987914 292 3466ft 184kts
04-Aug-20 10:04 37.673668 -122.046339 291 2189ft 173kts
04-Aug-20 10:05 37.689936 -122.096981 291 1491ft 139kts
04-Aug-20 10:06 37.703053 -122.137700 291 1179ft 115kts
04-Aug-20 10:07 37.714650 -122.173485 291 587ft 103kts
04-Aug-20 10:08 37.725263 -122.206066 290 38ft 93kts
04-Aug-20 10:09 37.729571 -122.219121 325 12ft 11kts
04-Aug-20 10:10 37.730408 -122.217024 75 12ft 10kts
04-Aug-20 10:11 37.729482 -122.213979 131 12ft 7kts
04-Aug-20 10:12 37.729456 -122.212504 305 12ft 3kts
04-Aug-20 10:13 37.729487 -122.212559 305 12ft 0kts
04-Aug-20 10:14 37.729486 -122.212559 305 12ft 0kts
04-Aug-20 10:15 37.729486 -122.212559 305 12ft 0kts
04-Aug-20 10:16 37.729486 -122.212559 305 12ft 0kts

Navigation Log

Ident Type
Flight plan parsing failed, navigation log unavailable